Time;durP1;ratioP1;P1;durP2;ratioP2;P2;SDS_P1;SDS_P2;PMS_P1;PMS_P2;Temp;Humidity;BMP_temperature;BMP_pressure;BME280_temperature;BME280_humidity;BME280_pressure;Samples;Min_cycle;Max_cycle;Signal;HPM_P1;HPM_P2
2022/10/12 00:00:23;;;;;;;6.43;3.55;;;;;;;10.83;52.28;102417.28;5053529;28;20048;-72
2022/10/12 00:02:49;;;;;;;6.35;3.65;;;;;;;10.81;52.49;102413.78;5053312;28;20045;-71
2022/10/12 00:05:17;;;;;;;4.63;3.13;;;;;;;10.81;52.51;102418.28;5052891;28;20064;-70
2022/10/12 00:07:43;;;;;;;7.30;4.30;;;;;;;10.82;52.61;102420.03;5053687;28;20037;-71
2022/10/12 00:10:10;;;;;;;7.15;3.97;;;;;;;10.87;52.78;102418.00;5053098;28;20053;-71
2022/10/12 00:12:37;;;;;;;7.32;3.40;;;;;;;10.91;52.70;102421.41;5051919;28;20099;-70
2022/10/12 00:15:05;;;;;;;5.95;3.35;;;;;;;10.95;52.72;102412.25;5053097;28;20091;-71
2022/10/12 00:17:31;;;;;;;5.93;3.15;;;;;;;10.98;52.63;102417.50;5064760;28;20103;-71
2022/10/12 00:19:58;;;;;;;6.60;3.20;;;;;;;10.99;52.61;102422.78;5033451;28;20107;-72
2022/10/12 00:22:24;;;;;;;5.55;3.30;;;;;;;11.01;52.82;102415.53;5032950;28;20046;-71
2022/10/12 00:24:53;;;;;;;5.85;3.58;;;;;;;11.05;52.61;102410.88;5033230;28;20450;-72
2022/10/12 00:27:20;;;;;;;7.75;3.30;;;;;;;11.08;52.63;102418.78;5036756;28;20037;-71
2022/10/12 00:29:47;;;;;;;6.70;3.85;;;;;;;11.07;52.46;102414.34;5051627;28;20526;-71
2022/10/12 00:32:14;;;;;;;6.05;3.90;;;;;;;11.08;52.63;102416.09;5052971;28;20049;-71
2022/10/12 00:34:42;;;;;;;6.20;3.53;;;;;;;11.09;52.37;102407.97;5052956;28;20037;-72
2022/10/12 00:37:08;;;;;;;5.32;3.20;;;;;;;11.11;52.47;102407.88;5052411;28;20106;-71
2022/10/12 00:39:35;;;;;;;9.82;4.70;;;;;;;11.11;52.61;102399.81;5052827;28;20090;-71
2022/10/12 00:42:01;;;;;;;8.40;3.40;;;;;;;11.10;52.40;102407.00;5052398;28;20055;-71
2022/10/12 00:44:42;;;;;;;8.85;4.47;;;;;;;11.08;52.47;102402.66;5052850;28;20049;-71
2022/10/12 00:47:19;;;;;;;7.25;3.60;;;;;;;11.06;52.45;102402.72;5052318;28;20102;-70
2022/10/12 00:49:54;;;;;;;10.15;3.92;;;;;;;11.05;52.62;102403.69;5052626;28;20033;-71
2022/10/12 00:52:25;;;;;;;7.90;4.13;;;;;;;11.06;52.36;102404.56;5052433;28;20037;-71
2022/10/12 00:54:53;;;;;;;9.40;4.53;;;;;;;11.06;52.28;102412.63;5051628;28;20029;-71
2022/10/12 00:57:21;;;;;;;11.25;4.43;;;;;;;11.03;52.14;102415.44;5052664;28;20045;-70
2022/10/12 00:59:56;;;;;;;11.43;4.82;;;;;;;10.98;52.25;102414.81;5052594;28;20037;-70
2022/10/12 01:02:25;;;;;;;;;;;;;;;10.91;52.32;102410.66;5052614;28;20434;-71
2022/10/12 01:04:54;;;;;;;11.65;5.05;;;;;;;10.89;52.32;102410.75;5052005;28;19921;-72
2022/10/12 01:07:20;;;;;;;7.97;4.47;;;;;;;10.82;52.35;102407.47;5051978;28;20065;-70
2022/10/12 01:09:47;;;;;;;10.52;4.22;;;;;;;10.75;52.38;102407.81;5051409;28;20041;-71
2022/10/12 01:12:15;;;;;;;7.32;4.22;;;;;;;10.67;52.35;102402.81;5050428;28;20042;-72
2022/10/12 01:14:45;;;;;;;8.63;4.07;;;;;;;10.61;52.45;102408.47;5051792;28;20044;-71
2022/10/12 01:17:36;;;;;;;10.48;5.00;;;;;;;10.54;52.63;102409.69;5051921;28;20041;-71
2022/10/12 01:20:18;;;;;;;5.93;4.25;;;;;;;10.50;52.59;102403.59;5051779;28;20049;-71
2022/10/12 01:23:23;;;;;;;9.77;4.75;;;;;;;10.50;52.91;102392.84;5051765;28;20045;-70
2022/10/12 01:26:11;;;;;;;12.32;4.57;;;;;;;10.55;52.96;102386.41;5020513;28;20050;-72
2022/10/12 01:29:10;;;;;;;13.40;4.82;;;;;;;10.56;52.95;102397.06;5039453;28;20036;-71
2022/10/12 01:31:48;;;;;;;6.18;4.57;;;;;;;10.56;53.01;102386.31;5039215;28;20053;-72
2022/10/12 01:34:30;;;;;;;7.78;4.35;;;;;;;10.56;53.10;102380.94;5051882;28;20076;-72
2022/10/12 01:37:07;;;;;;;8.25;5.10;;;;;;;10.56;53.16;102388.13;5051497;28;20400;-73
2022/10/12 01:39:40;;;;;;;11.50;4.45;;;;;;;10.56;53.43;102386.31;5051671;28;20454;-72
2022/10/12 01:42:14;;;;;;;6.88;3.88;;;;;;;10.56;53.24;102375.59;5050191;28;20098;-71
2022/10/12 01:44:41;;;;;;;12.68;4.43;;;;;;;10.57;53.37;102371.06;5050389;28;20048;-70
2022/10/12 01:47:08;;;;;;;8.80;3.60;;;;;;;10.56;53.56;102366.66;5051490;28;20549;-71
2022/10/12 01:49:35;;;;;;;8.75;4.30;;;;;;;10.56;53.59;102372.91;5051733;28;20045;-71
2022/10/12 01:52:17;;;;;;;8.48;4.18;;;;;;;10.55;53.51;102363.09;5050603;28;20095;-71
2022/10/12 01:55:06;;;;;;;7.30;4.43;;;;;;;10.55;53.81;102363.09;5051373;28;20067;-71
2022/10/12 01:57:47;;;;;;;8.52;4.72;;;;;;;10.56;53.59;102363.97;5049985;28;20529;-72
2022/10/12 02:00:15;;;;;;;7.35;4.97;;;;;;;10.57;53.60;102361.22;5051055;28;20561;-72
2022/10/12 02:03:09;;;;;;;9.48;5.10;;;;;;;10.59;53.89;102353.94;5051061;28;20044;-71
2022/10/12 02:05:59;;;;;;;6.78;4.93;;;;;;;10.62;53.78;102356.47;5051301;28;20438;-71
2022/10/12 02:08:34;;;;;;;7.95;5.30;;;;;;;10.65;53.84;102353.66;5051502;28;20040;-72
2022/10/12 02:11:13;;;;;;;11.43;5.72;;;;;;;10.69;53.88;102355.25;5051050;28;20083;-71
2022/10/12 02:13:47;;;;;;;10.57;5.60;;;;;;;10.74;54.02;102355.03;5049748;28;20098;-71
2022/10/12 02:16:18;;;;;;;12.38;6.30;;;;;;;10.77;53.94;102350.38;5033601;28;20489;-71
2022/10/12 02:18:49;;;;;;;10.70;5.63;;;;;;;10.81;54.12;102349.28;5050572;28;20107;-71
2022/10/12 02:21:20;;;;;;;8.25;5.22;;;;;;;10.85;54.16;102354.50;5050842;28;20037;-71
2022/10/12 02:26:20;;;;;;;9.30;5.03;;;;;;;10.83;54.07;102352.78;5049655;28;20055;-71
2022/10/12 02:28:48;;;;;;;9.85;5.80;;;;;;;10.85;54.14;102349.13;5050590;28;20037;-71
2022/10/12 02:31:33;;;;;;;7.22;5.05;;;;;;;10.82;53.93;102350.16;5051326;28;20394;-72
2022/10/12 02:34:10;;;;;;;9.85;5.18;;;;;;;10.82;53.88;102352.84;5051012;28;20090;-72
2022/10/12 02:36:53;;;;;;;10.23;4.97;;;;;;;10.81;54.12;102348.41;5050668;28;20056;-71
2022/10/12 02:39:25;;;;;;;9.30;4.55;;;;;;;10.82;53.84;102345.66;5050805;28;20098;-71
2022/10/12 02:41:58;;;;;;;10.25;5.80;;;;;;;10.85;53.81;102343.75;5044856;28;20238;-70
2022/10/12 02:44:32;;;;;;;9.48;5.70;;;;;;;10.83;54.06;102331.28;5051092;28;20087;-70
2022/10/12 02:47:03;;;;;;;9.20;5.63;;;;;;;10.82;53.82;102340.28;5050643;28;20115;-70
2022/10/12 02:49:33;;;;;;;13.10;5.50;;;;;;;10.81;53.88;102332.28;5049577;28;20455;-70
2022/10/12 02:52:01;;;;;;;10.80;5.60;;;;;;;10.78;54.15;102338.69;5050079;28;20041;-71
2022/10/12 02:54:31;;;;;;;12.30;6.50;;;;;;;10.75;53.95;102333.47;5050996;28;20045;-71
2022/10/12 02:56:58;;;;;;;10.98;5.68;;;;;;;10.71;54.15;102333.69;5050401;28;20494;-71
2022/10/12 02:59:24;;;;;;;10.40;5.80;;;;;;;10.68;54.31;102329.31;5050394;28;20491;-71
2022/10/12 03:01:51;;;;;;;11.80;5.75;;;;;;;10.66;54.35;102328.53;5050014;28;20033;-71
2022/10/12 03:04:21;;;;;;;13.35;6.03;;;;;;;10.66;54.42;102327.66;5049561;28;20042;-70
2022/10/12 03:06:47;;;;;;;8.05;5.13;;;;;;;10.62;54.26;102324.25;5050653;28;20299;-70
2022/10/12 03:09:14;;;;;;;9.40;5.07;;;;;;;10.61;54.38;102329.69;5049243;28;20049;-71
2022/10/12 03:11:43;;;;;;;15.23;4.85;;;;;;;10.59;54.46;102331.59;5050498;28;20029;-71
2022/10/12 03:14:11;;;;;;;9.98;5.47;;;;;;;10.58;54.33;102328.03;5050576;28;20053;-70
2022/10/12 03:16:37;;;;;;;7.35;4.93;;;;;;;10.56;54.34;102321.84;5050383;28;20048;-71
2022/10/12 03:19:04;;;;;;;8.82;5.20;;;;;;;10.53;54.52;102329.19;5050245;28;20498;-71
2022/10/12 03:21:30;;;;;;;12.48;5.55;;;;;;;10.50;54.63;102320.34;5050371;28;20041;-71
2022/10/12 03:24:01;;;;;;;9.23;5.32;;;;;;;10.50;54.50;102317.66;5050420;28;20075;-70
2022/10/12 03:26:27;;;;;;;11.18;5.18;;;;;;;10.49;54.38;102318.59;5050453;28;20037;-70
2022/10/12 03:28:54;;;;;;;13.90;6.13;;;;;;;10.47;54.55;102317.78;5050115;28;20079;-71
2022/10/12 03:31:21;;;;;;;10.43;4.78;;;;;;;10.48;54.71;102316.84;5050491;28;20112;-70
2022/10/12 03:36:18;;;;;;;10.02;4.93;;;;;;;10.47;54.65;102322.28;5053793;28;20060;-70
2022/10/12 03:38:45;;;;;;;10.93;5.57;;;;;;;10.46;54.57;102320.53;5053982;28;20499;-70
2022/10/12 03:41:11;;;;;;;7.22;5.30;;;;;;;10.47;54.63;102322.28;5052936;28;20041;-70
2022/10/12 03:43:38;;;;;;;10.38;5.63;;;;;;;10.48;54.58;102321.34;5053671;28;20123;-70
2022/10/12 03:46:04;;;;;;;10.05;5.50;;;;;;;10.50;54.67;102319.47;5052394;28;20053;-71
2022/10/12 03:48:31;;;;;;;13.05;5.85;;;;;;;10.52;54.62;102314.00;5053872;28;20098;-71
2022/10/12 03:50:57;;;;;;;11.45;5.55;;;;;;;10.49;54.48;102312.34;5052419;28;20107;-71
2022/10/12 03:53:24;;;;;;;10.65;5.60;;;;;;;10.50;54.85;102316.78;5051659;28;20454;-70
2022/10/12 03:55:52;;;;;;;14.88;6.65;;;;;;;10.50;54.74;102316.78;5053571;28;20048;-71
2022/10/12 03:58:19;;;;;;;10.80;5.68;;;;;;;10.48;54.80;102313.28;5053587;28;20107;-71
2022/10/12 04:00:45;;;;;;;12.93;6.82;;;;;;;10.47;54.44;102316.91;5052919;28;20491;-71
2022/10/12 04:03:12;;;;;;;9.38;5.95;;;;;;;10.45;54.65;102310.75;5053194;28;20053;-71
2022/10/12 04:05:39;;;;;;;8.95;5.30;;;;;;;10.45;54.66;102302.69;5053577;28;20381;-71
2022/10/12 04:08:06;;;;;;;9.40;5.63;;;;;;;10.47;54.93;102306.16;5053338;28;20422;-71
2022/10/12 04:10:32;;;;;;;12.00;6.05;;;;;;;10.47;54.96;102300.81;5053428;28;20045;-71
2022/10/12 04:12:59;;;;;;;15.93;6.57;;;;;;;10.46;54.77;102299.06;5052960;28;20045;-71
2022/10/12 04:15:26;;;;;;;13.48;6.63;;;;;;;10.45;54.78;102310.75;5053444;28;20044;-70
2022/10/12 04:17:52;;;;;;;12.35;6.85;;;;;;;10.44;54.81;102300.94;5053136;28;20041;-71
2022/10/12 04:20:19;;;;;;;12.60;6.22;;;;;;;10.42;54.99;102303.69;5052514;28;20111;-71
2022/10/12 04:22:45;;;;;;;14.13;6.65;;;;;;;10.40;54.83;102296.63;5053523;28;20049;-71
2022/10/12 04:25:13;;;;;;;14.23;6.60;;;;;;;10.39;54.84;102297.56;5053017;28;20079;-72
2022/10/12 04:27:39;;;;;;;12.68;6.70;;;;;;;10.38;54.86;102299.38;5052881;28;20119;-71
2022/10/12 04:30:07;;;;;;;11.50;6.82;;;;;;;10.38;54.93;102291.34;5052504;28;20033;-70
2022/10/12 04:32:33;;;;;;;15.50;6.95;;;;;;;10.37;54.86;102288.72;5052779;28;20037;-71
2022/10/12 04:35:03;;;;;;;11.38;6.72;;;;;;;10.37;55.09;102288.72;5053249;28;20068;-71
2022/10/12 04:37:30;;;;;;;16.02;7.68;;;;;;;10.35;55.03;102291.47;5053324;28;20117;-71
2022/10/12 04:39:57;;;;;;;17.63;7.35;;;;;;;10.34;55.01;102283.50;5052843;28;20099;-70
2022/10/12 04:42:23;;;;;;;12.65;6.03;;;;;;;10.30;54.75;102288.13;5052206;28;20718;-70
2022/10/12 04:44:53;;;;;;;13.55;6.82;;;;;;;10.25;54.90;102287.47;5051184;28;20045;-71
2022/10/12 04:47:19;;;;;;;12.88;7.03;;;;;;;10.24;55.03;102303.66;5052723;28;20087;-70
2022/10/12 04:49:46;;;;;;;13.73;6.65;;;;;;;10.18;54.95;102297.59;5051245;28;20029;-71
2022/10/12 04:52:12;;;;;;;13.23;5.93;;;;;;;10.15;54.83;102299.56;5052321;28;20041;-71
2022/10/12 04:54:39;;;;;;;13.10;5.97;;;;;;;10.11;54.96;102306.88;5050759;28;20094;-70
2022/10/12 04:57:05;;;;;;;10.98;6.03;;;;;;;10.08;54.94;102306.16;5051273;28;20087;-70
2022/10/12 04:59:32;;;;;;;12.82;6.85;;;;;;;10.04;55.26;102300.06;5052478;28;20033;-71
2022/10/12 05:01:58;;;;;;;14.13;6.20;;;;;;;10.06;55.12;102297.28;5051854;28;20037;-71
2022/10/12 05:04:27;;;;;;;10.77;6.63;;;;;;;10.06;55.13;102303.53;5052442;28;20033;-71
2022/10/12 05:06:53;;;;;;;15.65;6.38;;;;;;;10.10;55.14;102309.63;5052113;28;20063;-70
2022/10/12 05:09:20;;;;;;;11.93;6.07;;;;;;;10.12;55.06;102303.25;5052431;28;20041;-71
2022/10/12 05:11:47;;;;;;;10.70;6.30;;;;;;;10.15;54.98;102300.44;5050354;28;20086;-71
2022/10/12 05:14:15;;;;;;;13.57;6.50;;;;;;;10.14;55.04;102298.69;5052400;28;20040;-72
2022/10/12 05:16:41;;;;;;;7.18;5.05;;;;;;;10.12;54.99;102302.38;5051981;28;20441;-71
2022/10/12 05:19:08;;;;;;;9.45;5.15;;;;;;;10.12;54.94;102299.69;5052077;28;20091;-71
2022/10/12 05:21:34;;;;;;;9.90;5.80;;;;;;;10.10;54.87;102288.16;5051398;28;20386;-71
2022/10/12 05:24:04;;;;;;;10.40;5.93;;;;;;;10.09;54.60;102291.78;5052331;28;20557;-72
2022/10/12 05:26:30;;;;;;;11.70;6.30;;;;;;;10.08;54.75;102287.38;5051760;28;20057;-71
2022/10/12 05:28:57;;;;;;;11.73;6.32;;;;;;;10.07;54.64;102285.63;5051961;28;20483;-71
2022/10/12 05:31:24;;;;;;;11.13;6.50;;;;;;;10.06;54.84;102286.56;5051213;28;20047;-72
2022/10/12 05:33:55;;;;;;;11.63;7.18;;;;;;;10.05;54.69;102282.13;5050286;28;20098;-72
2022/10/12 05:36:21;;;;;;;13.02;7.28;;;;;;;10.03;54.71;102281.34;5051726;28;20049;-71
2022/10/12 05:38:48;;;;;;;12.77;7.65;;;;;;;10.01;54.84;102289.47;5051802;28;20041;-71
2022/10/12 05:41:14;;;;;;;14.38;7.15;;;;;;;9.98;54.81;102289.59;5051644;28;20526;-70
2022/10/12 05:43:41;;;;;;;14.95;7.28;;;;;;;9.96;54.77;102291.47;5051202;28;20045;-70
2022/10/12 05:46:08;;;;;;;13.52;7.35;;;;;;;9.95;54.98;102291.56;5051392;28;20111;-73
2022/10/12 05:48:40;;;;;;;13.35;7.32;;;;;;;9.92;54.98;102292.56;5050449;28;20448;-72
2022/10/12 05:51:06;;;;;;;23.65;7.72;;;;;;;9.88;54.96;102283.78;5051396;28;20045;-71
2022/10/12 05:53:32;;;;;;;14.98;7.18;;;;;;;9.83;54.95;102288.47;5051572;28;20136;-71
2022/10/12 05:56:03;;;;;;;14.60;7.38;;;;;;;9.82;55.15;102283.19;5050664;28;20099;-71
2022/10/12 05:58:30;;;;;;;11.40;7.10;;;;;;;9.79;54.94;102286.88;5051436;28;20483;-71
2022/10/12 06:01:05;;;;;;;12.52;7.28;;;;;;;9.78;54.98;102289.63;5051548;28;20045;-70
2022/10/12 06:03:31;;;;;;;15.55;7.28;;;;;;;9.78;55.08;102284.25;5051439;28;20107;-72
2022/10/12 06:06:02;;;;;;;22.17;8.77;;;;;;;9.77;55.12;102287.88;5051335;28;20140;-70
2022/10/12 06:08:30;;;;;;;14.98;7.40;;;;;;;9.77;55.36;102287.88;5051107;28;20048;-70
2022/10/12 06:10:56;;;;;;;15.13;7.55;;;;;;;9.76;55.18;102287.00;5051231;28;20083;-71
2022/10/12 06:13:24;;;;;;;12.52;8.02;;;;;;;9.77;55.38;102290.56;5050953;28;20490;-71
2022/10/12 06:15:52;;;;;;;15.52;8.18;;;;;;;9.77;55.44;102290.56;5051260;28;20114;-71
2022/10/12 06:18:19;;;;;;;12.02;7.15;;;;;;;9.77;55.49;102288.75;5050683;28;20102;-71
2022/10/12 06:20:53;;;;;;;13.68;7.60;;;;;;;9.77;55.45;102280.72;5050948;28;20107;-71
2022/10/12 06:23:40;;;;;;;15.82;8.10;;;;;;;9.81;55.45;102289.50;5050994;28;20064;-69
2022/10/12 06:26:07;;;;;;;12.90;7.50;;;;;;;9.84;55.58;102284.00;5051066;28;20465;-75
2022/10/12 06:28:33;;;;;;;14.05;7.57;;;;;;;9.88;55.88;102288.28;5050563;28;20491;-72
2022/10/12 06:31:00;;;;;;;16.83;8.30;;;;;;;9.93;55.82;102280.88;5051093;28;20293;-71
2022/10/12 06:33:27;;;;;;;10.90;7.75;;;;;;;9.99;55.75;102279.72;5049488;28;20045;-70
2022/10/12 06:35:55;;;;;;;13.57;7.43;;;;;;;10.04;55.97;102278.59;5051148;28;20095;-70
2022/10/12 06:38:21;;;;;;;14.48;8.00;;;;;;;10.10;55.84;102278.28;5049076;28;20102;-70
2022/10/12 06:40:48;;;;;;;14.05;7.72;;;;;;;10.15;55.91;102284.31;5051198;28;20033;-72
2022/10/12 06:43:15;;;;;;;13.85;8.50;;;;;;;10.21;56.08;102276.97;5050747;28;20045;-71
2022/10/12 06:45:42;;;;;;;14.38;7.85;;;;;;;10.27;55.79;102282.03;5050990;28;20095;-72
2022/10/12 06:48:09;;;;;;;13.32;7.50;;;;;;;10.33;56.03;102281.75;5050873;28;20048;-73
2022/10/12 06:50:40;;;;;;;16.08;7.45;;;;;;;10.39;56.09;102281.47;5050269;28;20057;-72
2022/10/12 06:53:06;;;;;;;11.52;8.43;;;;;;;10.46;55.85;102275.75;5050615;28;20103;-72
2022/10/12 06:55:33;;;;;;;11.48;7.93;;;;;;;10.52;55.97;102285.34;5050947;28;20040;-73
2022/10/12 06:57:59;;;;;;;11.15;6.80;;;;;;;10.59;56.44;102281.41;5050306;28;20037;-73
2022/10/12 07:00:26;;;;;;;11.25;7.47;;;;;;;10.64;56.12;102284.75;5049482;28;20487;-73
2022/10/12 07:02:53;;;;;;;16.02;7.97;;;;;;;10.69;56.11;102288.06;5050434;28;20086;-73
2022/10/12 07:05:22;;;;;;;14.98;7.72;;;;;;;10.75;56.27;102286.91;5050817;28;20055;-72
2022/10/12 07:07:48;;;;;;;10.52;7.25;;;;;;;10.82;56.02;102285.66;5050297;28;20056;-72
2022/10/12 07:10:15;;;;;;;12.55;7.72;;;;;;;10.88;56.35;102285.34;5054554;28;20526;-72
2022/10/12 07:12:42;;;;;;;13.57;7.68;;;;;;;10.96;56.31;102284.97;5054309;28;20037;-72
2022/10/12 07:15:13;;;;;;;14.82;7.85;;;;;;;11.00;56.12;102284.75;5054395;28;20037;-72
2022/10/12 07:17:39;;;;;;;13.57;8.45;;;;;;;11.06;56.39;102281.75;5052649;28;20056;-71
2022/10/12 07:20:07;;;;;;;14.20;8.65;;;;;;;11.11;56.32;102292.28;5054324;28;20045;-71
2022/10/12 07:22:33;;;;;;;11.60;7.88;;;;;;;11.15;56.46;102277.75;5054170;28;20037;-72
2022/10/12 07:25:05;;;;;;;15.70;9.38;;;;;;;11.21;56.73;102288.19;5053778;28;20083;-72
2022/10/12 07:27:31;;;;;;;13.50;8.20;;;;;;;11.26;56.72;102280.78;5054257;28;20045;-71
2022/10/12 07:29:58;;;;;;;14.93;7.72;;;;;;;11.35;56.80;102282.13;5054432;28;20048;-71
2022/10/12 07:32:27;;;;;;;16.83;8.57;;;;;;;11.44;56.80;102266.38;5043762;28;20043;-70
2022/10/12 07:34:56;;;;;;;16.05;8.52;;;;;;;11.54;56.92;102269.44;5051910;28;20439;-71
2022/10/12 07:37:23;;;;;;;13.27;8.90;;;;;;;11.63;56.54;102276.16;5052406;28;20053;-71
2022/10/12 07:39:55;;;;;;;16.38;9.07;;;;;;;11.68;56.65;102269.59;5052460;28;20402;-71
2022/10/12 07:42:24;;;;;;;16.45;10.05;;;;;;;11.74;56.72;102269.25;5053460;28;20043;-72
2022/10/12 07:44:54;;;;;;;17.33;9.60;;;;;;;11.82;56.72;102268.88;5036173;28;20124;-71
2022/10/12 07:47:20;;;;;;;16.50;9.15;;;;;;;11.87;56.53;102263.25;5053234;28;20099;-71
2022/10/12 07:49:47;;;;;;;14.18;9.25;;;;;;;11.89;56.42;102262.25;5053574;28;20082;-71
2022/10/12 07:52:13;;;;;;;17.58;10.02;;;;;;;11.95;56.40;102270.00;5053665;28;20122;-71
2022/10/12 07:54:42;;;;;;;17.80;10.20;;;;;;;12.03;56.36;102262.38;5053774;28;20041;-72
2022/10/12 07:57:08;;;;;;;20.48;9.60;;;;;;;12.11;56.74;102266.47;5053300;28;20049;-71
2022/10/12 07:59:35;;;;;;;15.55;9.35;;;;;;;12.19;56.82;102272.31;5053454;28;20091;-71
2022/10/12 08:02:01;;;;;;;16.67;10.15;;;;;;;12.25;56.30;102271.97;5053392;28;20041;-71
2022/10/12 08:04:29;;;;;;;22.33;10.45;;;;;;;12.32;56.73;102273.34;5053518;28;20037;-71
2022/10/12 08:06:56;;;;;;;18.63;10.65;;;;;;;12.38;56.46;102276.56;5053458;28;20049;-71
2022/10/12 08:09:23;;;;;;;18.25;9.55;;;;;;;12.45;56.55;102282.50;5053374;28;20045;-72
2022/10/12 08:11:50;;;;;;;23.38;10.55;;;;;;;12.51;56.64;102286.66;5051607;28;20473;-70
2022/10/12 08:14:16;;;;;;;17.98;9.50;;;;;;;12.56;56.55;102287.28;5053298;28;20083;-73
2022/10/12 08:16:44;;;;;;;17.80;9.73;;;;;;;12.63;56.61;102283.28;5052894;28;20511;-73
2022/10/12 08:19:11;;;;;;;14.15;9.57;;;;;;;12.68;56.34;102290.19;5050450;28;20072;-78
2022/10/12 08:21:37;;;;;;;20.33;11.40;;;;;;;12.76;56.35;102281.66;5034784;28;20550;-77
2022/10/12 08:24:09;;;;;;;20.48;11.57;;;;;;;12.84;56.37;102278.50;5053255;28;20037;-79
2022/10/12 08:26:37;;;;;;;15.77;9.93;;;;;;;12.90;56.25;102279.03;5051605;28;20122;-79
2022/10/12 08:29:05;;;;;;;19.13;10.77;;;;;;;13.00;56.43;102273.97;5052217;28;20044;-79
2022/10/12 08:31:31;;;;;;;21.05;12.93;;;;;;;13.07;56.37;102280.75;5052894;28;20094;-78
2022/10/12 08:34:03;;;;;;;18.60;12.35;;;;;;;13.17;56.50;102276.56;5053173;28;20087;-81
2022/10/12 08:36:29;;;;;;;24.42;12.07;;;;;;;13.29;56.58;102283.06;5052573;28;20107;-79
2022/10/12 08:38:56;;;;;;;20.73;11.38;;;;;;;13.42;56.19;102277.84;5052195;28;20442;-78
2022/10/12 08:41:46;;;;;;;20.48;13.27;;;;;;;13.57;56.32;102274.19;5051336;28;20041;-79
2022/10/12 08:44:28;;;;;;;20.52;12.23;;;;;;;13.72;56.25;102278.66;5051504;28;20091;-80
2022/10/12 08:47:05;;;;;;;23.55;12.65;;;;;;;13.84;55.96;102277.91;5034322;28;20053;-80
2022/10/12 08:49:32;;;;;;;24.05;13.63;;;;;;;13.96;56.20;102277.13;5052163;28;20094;-80
2022/10/12 08:52:05;;;;;;;20.88;13.23;;;;;;;14.05;56.18;102274.81;5052118;28;20033;-81
2022/10/12 08:54:42;;;;;;;25.63;14.40;;;;;;;14.11;55.64;102277.13;5052662;28;20098;-81
2022/10/12 08:57:16;;;;;;;23.85;13.73;;;;;;;14.19;55.93;102272.16;5050453;28;20044;-80
2022/10/12 08:59:44;;;;;;;19.90;13.63;;;;;;;14.30;55.73;102270.50;5034325;28;20454;-79
2022/10/12 09:02:33;;;;;;;22.60;14.27;;;;;;;14.43;55.69;102269.75;5051823;28;20355;-78
2022/10/12 09:05:12;;;;;;;21.17;13.60;;;;;;;14.59;55.37;102265.06;5051194;28;20098;-79
2022/10/12 09:07:45;;;;;;;21.50;13.48;;;;;;;14.74;55.36;102269.47;5050733;28;20048;-79
2022/10/12 09:10:39;;;;;;;23.17;14.60;;;;;;;14.94;55.39;102270.88;5052293;28;20036;-79
2022/10/12 09:13:30;;;;;;;23.77;14.98;;;;;;;15.13;55.17;102282.19;5051897;28;20433;-78
2022/10/12 09:16:04;;;;;;;22.67;14.77;;;;;;;15.32;55.48;102268.28;5052480;28;20502;-80
2022/10/12 09:18:44;;;;;;;20.35;13.80;;;;;;;15.50;55.10;102266.16;5050124;28;20388;-81
2022/10/12 09:21:19;;;;;;;19.55;13.50;;;;;;;15.68;54.77;102266.78;5050064;28;20076;-81
2022/10/12 09:26:31;;;;;;;20.52;12.93;;;;;;;16.04;54.65;102274.13;5051666;28;20086;-82
2022/10/12 09:28:58;;;;;;;23.55;14.02;;;;;;;16.15;54.13;102266.97;5050047;28;20045;-82
2022/10/12 09:31:34;;;;;;;21.85;13.75;;;;;;;16.32;54.34;102265.75;5049546;28;20045;-79
2022/10/12 09:34:07;;;;;;;19.40;13.70;;;;;;;16.50;54.38;102269.84;5052013;28;20087;-79
2022/10/12 09:36:36;;;;;;;23.77;13.68;;;;;;;16.68;54.05;102272.22;5050382;28;20068;-80
2022/10/12 09:39:09;;;;;;;22.52;14.10;;;;;;;16.83;53.88;102271.94;5049791;28;20099;-80
2022/10/12 09:41:42;;;;;;;24.52;14.20;;;;;;;17.04;53.56;102280.31;5049922;28;20048;-80
2022/10/12 09:44:21;;;;;;;23.00;13.45;;;;;;;17.20;53.69;102277.34;5051665;28;20029;-82
2022/10/12 09:46:57;;;;;;;20.67;13.38;;;;;;;17.33;53.36;102274.53;5050037;28;20481;-82
2022/10/12 09:49:43;;;;;;;24.58;14.35;;;;;;;17.49;53.08;102277.78;5030454;28;20041;-82
2022/10/12 09:52:12;;;;;;;26.45;13.90;;;;;;;17.66;52.94;102277.38;5031277;28;20050;-77
2022/10/12 09:54:45;;;;;;;18.98;13.82;;;;;;;17.78;52.72;102270.97;5031377;28;20073;-77
2022/10/12 09:57:39;;;;;;;21.13;14.13;;;;;;;17.88;52.51;102264.84;5033747;28;20059;-77
2022/10/12 10:00:29;;;;;;;19.05;13.50;;;;;;;17.94;51.93;102259.78;5050292;28;20462;-76
2022/10/12 10:02:56;;;;;;;23.33;14.27;;;;;;;18.00;51.65;102258.44;5051068;28;20037;-77
2022/10/12 10:05:32;;;;;;;23.23;14.35;;;;;;;18.05;51.12;102259.78;5049269;28;20237;-78
2022/10/12 10:08:18;;;;;;;27.67;15.48;;;;;;;18.09;51.25;102257.69;5049694;28;20037;-78
2022/10/12 10:10:57;;;;;;;20.92;14.60;;;;;;;18.13;51.54;102258.31;5050057;28;20251;-75
2022/10/12 10:13:34;;;;;;;24.98;16.00;;;;;;;18.19;51.31;102249.66;5049637;28;20434;-77
2022/10/12 10:16:04;;;;;;;24.85;14.77;;;;;;;18.30;51.22;102255.09;5049540;28;20399;-78
2022/10/12 10:18:39;;;;;;;21.00;14.10;;;;;;;18.41;51.23;102253.22;5049586;28;20449;-79
2022/10/12 10:21:09;;;;;;;22.43;15.07;;;;;;;18.58;51.19;102245.53;5049717;28;20044;-79
2022/10/12 10:27:06;;;;;;;25.73;15.30;;;;;;;18.84;50.42;102248.88;5049151;28;20052;-77
2022/10/12 10:29:41;;;;;;;22.80;14.48;;;;;;;18.97;50.27;102249.56;5050735;28;20040;-76
2022/10/12 10:32:25;;;;;;;26.20;15.43;;;;;;;19.06;49.88;102237.88;5049408;28;20037;-77
2022/10/12 10:35:12;;;;;;;24.73;16.50;;;;;;;19.20;49.57;102232.13;5049777;28;20044;-77
2022/10/12 10:37:49;;;;;;;24.80;15.45;;;;;;;19.34;49.55;102225.53;5050020;28;20044;-76
2022/10/12 10:40:24;;;;;;;23.65;15.38;;;;;;;19.44;49.48;102228.31;5051206;28;20049;-76
2022/10/12 10:42:54;;;;;;;22.20;14.73;;;;;;;19.57;49.41;102218.09;5052279;28;20075;-78
2022/10/12 10:45:28;;;;;;;23.05;14.77;;;;;;;19.69;49.17;102227.94;5053497;28;20560;-77
2022/10/12 10:48:00;;;;;;;24.88;16.30;;;;;;;19.81;48.88;102234.16;5053675;28;20051;-78
2022/10/12 10:50:37;;;;;;;22.00;14.70;;;;;;;19.93;48.28;102233.06;5054238;28;20048;-79
2022/10/12 10:53:13;;;;;;;23.45;15.13;;;;;;;20.03;48.17;102233.13;5054500;28;20056;-79
2022/10/12 10:55:39;;;;;;;23.25;14.23;;;;;;;20.15;48.31;102232.06;5033479;28;20458;-79
2022/10/12 10:58:22;;;;;;;19.10;13.90;;;;;;;20.25;47.55;102231.09;5051224;28;20537;-78
2022/10/12 11:00:52;;;;;;;21.00;13.48;;;;;;;20.34;47.51;102220.34;5054447;28;20102;-79
2022/10/12 11:03:30;;;;;;;21.10;13.13;;;;;;;20.45;47.64;102223.00;5054393;28;20104;-79
2022/10/12 11:06:17;;;;;;;16.63;12.63;;;;;;;20.59;47.58;102225.31;5054365;28;20048;-76
2022/10/12 11:08:45;;;;;;;19.00;12.50;;;;;;;20.71;47.17;102217.88;5054257;28;20060;-76
2022/10/12 11:11:18;;;;;;;19.20;12.27;;;;;;;20.78;46.58;102214.44;5054195;28;20041;-76
2022/10/12 11:13:59;;;;;;;20.20;12.68;;;;;;;20.87;46.39;102213.59;5052852;28;20324;-76
2022/10/12 11:16:25;;;;;;;19.65;13.35;;;;;;;20.96;46.47;102211.88;5053944;28;20041;-76
2022/10/12 11:18:56;;;;;;;18.70;12.43;;;;;;;21.05;46.43;102207.44;5054083;28;20044;-76
2022/10/12 11:21:44;;;;;;;19.35;11.82;;;;;;;21.17;46.01;102203.53;5052907;28;20033;-76
2022/10/12 11:24:18;;;;;;;25.08;11.45;;;;;;;21.26;45.50;102199.97;5034241;28;20041;-75
2022/10/12 11:27:15;;;;;;;19.70;11.63;;;;;;;21.26;45.09;102197.22;5033976;28;20045;-76
2022/10/12 11:29:42;;;;;;;21.10;12.38;;;;;;;21.27;45.34;102198.09;5033981;28;20037;-77
2022/10/12 11:32:30;;;;;;;21.85;12.38;;;;;;;21.24;45.09;102183.72;5037681;28;20041;-76
2022/10/12 11:35:00;;;;;;;16.25;9.75;;;;;;;21.33;44.86;102189.31;5053849;28;20045;-77
2022/10/12 11:37:37;;;;;;;16.02;9.05;;;;;;;21.38;44.79;102176.94;5053607;28;20045;-76
2022/10/12 11:40:08;;;;;;;12.63;8.15;;;;;;;21.47;44.81;102175.19;5052354;28;20052;-76
2022/10/12 11:42:40;;;;;;;12.00;8.35;;;;;;;21.53;44.20;102164.53;5032277;28;20484;-75
2022/10/12 11:45:28;;;;;;;15.70;10.18;;;;;;;21.58;44.05;102155.03;5033783;28;20411;-76